sensor_id;sensor_type;location;lat;lon;timestamp;pressure;altitude;pressure_sealevel;temperature;humidity
24230;BME280;12362;50.004;8.006;2023-01-15T00:01:17;99066.72;;;11.20;100.00
24230;BME280;12362;50.004;8.006;2023-01-15T00:03:43;99067.44;;;11.22;100.00
24230;BME280;12362;50.004;8.006;2023-01-15T00:06:08;99053.00;;;11.18;100.00
24230;BME280;12362;50.004;8.006;2023-01-15T00:08:34;99044.41;;;11.17;100.00
24230;BME280;12362;50.004;8.006;2023-01-15T00:11:02;99053.47;;;11.12;100.00
24230;BME280;12362;50.004;8.006;2023-01-15T00:13:53;99036.22;;;11.11;100.00
24230;BME280;12362;50.004;8.006;2023-01-15T00:16:20;99041.50;;;11.09;100.00
24230;BME280;12362;50.004;8.006;2023-01-15T00:18:54;99038.66;;;11.01;100.00
24230;BME280;12362;50.004;8.006;2023-01-15T00:21:20;99038.78;;;11.00;100.00
24230;BME280;12362;50.004;8.006;2023-01-15T00:23:47;99033.66;;;10.98;100.00
24230;BME280;12362;50.004;8.006;2023-01-15T00:26:32;99033.19;;;10.93;100.00
24230;BME280;12362;50.004;8.006;2023-01-15T00:29:16;99029.66;;;10.94;100.00
24230;BME280;12362;50.004;8.006;2023-01-15T00:31:42;99033.19;;;10.93;100.00
24230;BME280;12362;50.004;8.006;2023-01-15T00:34:09;99034.22;;;10.91;100.00
24230;BME280;12362;50.004;8.006;2023-01-15T00:36:34;99058.44;;;10.91;100.00
24230;BME280;12362;50.004;8.006;2023-01-15T00:39:03;99056.91;;;10.89;100.00
24230;BME280;12362;50.004;8.006;2023-01-15T00:41:28;99071.03;;;10.85;100.00
24230;BME280;12362;50.004;8.006;2023-01-15T00:43:53;99083.53;;;10.68;100.00
24230;BME280;12362;50.004;8.006;2023-01-15T00:46:19;99071.81;;;10.50;100.00
24230;BME280;12362;50.004;8.006;2023-01-15T00:48:45;99072.06;;;10.34;100.00
24230;BME280;12362;50.004;8.006;2023-01-15T00:51:10;99061.47;;;10.25;100.00
24230;BME280;12362;50.004;8.006;2023-01-15T00:53:36;99056.09;;;10.28;100.00
24230;BME280;12362;50.004;8.006;2023-01-15T00:56:01;99062.09;;;10.16;100.00
24230;BME280;12362;50.004;8.006;2023-01-15T00:58:27;99063.03;;;10.15;100.00
24230;BME280;12362;50.004;8.006;2023-01-15T01:00:53;99064.50;;;10.19;100.00
24230;BME280;12362;50.004;8.006;2023-01-15T01:03:19;99066.47;;;10.15;100.00
24230;BME280;12362;50.004;8.006;2023-01-15T01:05:44;99059.84;;;10.11;100.00
24230;BME280;12362;50.004;8.006;2023-01-15T01:08:10;99063.28;;;10.12;100.00
24230;BME280;12362;50.004;8.006;2023-01-15T01:10:35;99062.53;;;10.10;100.00
24230;BME280;12362;50.004;8.006;2023-01-15T01:13:01;99061.69;;;10.09;100.00
24230;BME280;12362;50.004;8.006;2023-01-15T01:15:26;99066.16;;;10.07;100.00
24230;BME280;12362;50.004;8.006;2023-01-15T01:17:52;99061.69;;;10.09;100.00
24230;BME280;12362;50.004;8.006;2023-01-15T01:20:17;99062.53;;;10.10;100.00
24230;BME280;12362;50.004;8.006;2023-01-15T01:22:43;99071.66;;;10.03;100.00
24230;BME280;12362;50.004;8.006;2023-01-15T01:25:09;99069.38;;;9.98;100.00
24230;BME280;12362;50.004;8.006;2023-01-15T01:27:35;99064.00;;;10.01;100.00
24230;BME280;12362;50.004;8.006;2023-01-15T01:30:00;99071.97;;;9.98;100.00
24230;BME280;12362;50.004;8.006;2023-01-15T01:32:26;99074.56;;;9.98;100.00
24230;BME280;12362;50.004;8.006;2023-01-15T01:34:51;99070.84;;;10.02;100.00
24230;BME280;12362;50.004;8.006;2023-01-15T01:37:17;99080.28;;;10.03;100.00
24230;BME280;12362;50.004;8.006;2023-01-15T01:39:42;99091.78;;;9.99;100.00
24230;BME280;12362;50.004;8.006;2023-01-15T01:42:12;99105.22;;;9.92;100.00
24230;BME280;12362;50.004;8.006;2023-01-15T01:47:09;99124.41;;;9.90;100.00
24230;BME280;12362;50.004;8.006;2023-01-15T01:49:38;99128.66;;;9.91;100.00
24230;BME280;12362;50.004;8.006;2023-01-15T01:52:08;99132.06;;;9.79;100.00
24230;BME280;12362;50.004;8.006;2023-01-15T01:54:36;99138.28;;;9.76;100.00
24230;BME280;12362;50.004;8.006;2023-01-15T01:57:04;99149.00;;;9.58;100.00
24230;BME280;12362;50.004;8.006;2023-01-15T01:59:31;99154.44;;;9.41;100.00
24230;BME280;12362;50.004;8.006;2023-01-15T02:01:57;99154.09;;;9.33;100.00
24230;BME280;12362;50.004;8.006;2023-01-15T02:04:25;99140.59;;;9.28;100.00
24230;BME280;12362;50.004;8.006;2023-01-15T02:06:52;99146.50;;;9.30;100.00
24230;BME280;12362;50.004;8.006;2023-01-15T02:09:18;99140.34;;;9.18;100.00
24230;BME280;12362;50.004;8.006;2023-01-15T02:11:43;99153.78;;;9.11;100.00
24230;BME280;12362;50.004;8.006;2023-01-15T02:16:53;99161.59;;;8.97;100.00
24230;BME280;12362;50.004;8.006;2023-01-15T02:19:29;99157.22;;;8.98;100.00
24230;BME280;12362;50.004;8.006;2023-01-15T02:27:33;99153.94;;;8.82;100.00
24230;BME280;12362;50.004;8.006;2023-01-15T02:32:52;99143.59;;;8.82;100.00
24230;BME280;12362;50.004;8.006;2023-01-15T02:35:27;99146.34;;;8.79;100.00
24230;BME280;12362;50.004;8.006;2023-01-15T02:37:57;99142.75;;;8.81;100.00
24230;BME280;12362;50.004;8.006;2023-01-15T02:40:25;99150.91;;;8.75;100.00
24230;BME280;12362;50.004;8.006;2023-01-15T02:42:52;99152.75;;;8.73;100.00
24230;BME280;12362;50.004;8.006;2023-01-15T02:45:22;99151.06;;;8.72;100.00
24230;BME280;12362;50.004;8.006;2023-01-15T02:47:56;99162.16;;;8.74;100.00
24230;BME280;12362;50.004;8.006;2023-01-15T02:50:26;99162.44;;;8.70;100.00
24230;BME280;12362;50.004;8.006;2023-01-15T02:52:57;99163.72;;;8.63;100.00
24230;BME280;12362;50.004;8.006;2023-01-15T02:55:28;99162.25;;;8.59;100.00
24230;BME280;12362;50.004;8.006;2023-01-15T02:57:57;99157.75;;;8.62;100.00
24230;BME280;12362;50.004;8.006;2023-01-15T03:00:25;99162.97;;;8.61;100.00
24230;BME280;12362;50.004;8.006;2023-01-15T03:02:58;99172.88;;;8.54;100.00
24230;BME280;12362;50.004;8.006;2023-01-15T03:05:29;99165.78;;;8.58;100.00
24230;BME280;12362;50.004;8.006;2023-01-15T03:07:58;99176.66;;;8.49;100.00
24230;BME280;12362;50.004;8.006;2023-01-15T03:13:24;99186.06;;;8.50;100.00
24230;BME280;12362;50.004;8.006;2023-01-15T03:16:38;99183.41;;;8.51;100.00
24230;BME280;12362;50.004;8.006;2023-01-15T03:19:31;99176.75;;;8.47;100.00
24230;BME280;12362;50.004;8.006;2023-01-15T03:22:04;99186.47;;;8.44;100.00
24230;BME280;12362;50.004;8.006;2023-01-15T03:24:38;99191.63;;;8.44;100.00
24230;BME280;12362;50.004;8.006;2023-01-15T03:27:04;99197.78;;;8.41;100.00
24230;BME280;12362;50.004;8.006;2023-01-15T03:29:37;99201.59;;;8.50;100.00
24230;BME280;12362;50.004;8.006;2023-01-15T03:32:03;99203.44;;;8.48;100.00
24230;BME280;12362;50.004;8.006;2023-01-15T03:34:42;99214.81;;;8.45;100.00
24230;BME280;12362;50.004;8.006;2023-01-15T03:37:08;99212.03;;;8.34;100.00
24230;BME280;12362;50.004;8.006;2023-01-15T03:39:34;99213.53;;;8.38;100.00
24230;BME280;12362;50.004;8.006;2023-01-15T03:45:11;99226.03;;;8.30;100.00
24230;BME280;12362;50.004;8.006;2023-01-15T03:48:01;99219.84;;;8.19;100.00
24230;BME280;12362;50.004;8.006;2023-01-15T03:53:29;99238.97;;;8.16;100.00
24230;BME280;12362;50.004;8.006;2023-01-15T03:58:48;99242.38;;;8.02;100.00
24230;BME280;12362;50.004;8.006;2023-01-15T04:01:18;99245.72;;;7.88;100.00
24230;BME280;12362;50.004;8.006;2023-01-15T04:03:46;99242.72;;;7.96;100.00
24230;BME280;12362;50.004;8.006;2023-01-15T04:06:13;99248.25;;;7.90;100.00
24230;BME280;12362;50.004;8.006;2023-01-15T04:08:41;99247.59;;;7.86;100.00
24230;BME280;12362;50.004;8.006;2023-01-15T04:11:08;99257.16;;;7.84;100.00
24230;BME280;12362;50.004;8.006;2023-01-15T04:13:33;99268.94;;;7.74;100.00
24230;BME280;12362;50.004;8.006;2023-01-15T04:15:59;99268.25;;;7.71;100.00
24230;BME280;12362;50.004;8.006;2023-01-15T04:18:25;99280.50;;;7.83;100.00
24230;BME280;12362;50.004;8.006;2023-01-15T04:20:50;99274.41;;;7.84;100.00
24230;BME280;12362;50.004;8.006;2023-01-15T04:23:16;99278.94;;;7.65;100.00
24230;BME280;12362;50.004;8.006;2023-01-15T04:25:41;99275.75;;;7.60;100.00
24230;BME280;12362;50.004;8.006;2023-01-15T04:28:08;99282.44;;;7.33;100.00
24230;BME280;12362;50.004;8.006;2023-01-15T04:30:34;99274.25;;;7.40;100.00
24230;BME280;12362;50.004;8.006;2023-01-15T04:33:00;99279.00;;;7.48;100.00
24230;BME280;12362;50.004;8.006;2023-01-15T04:35:25;99278.84;;;7.35;100.00
24230;BME280;12362;50.004;8.006;2023-01-15T04:37:55;99275.25;;;7.38;100.00
24230;BME280;12362;50.004;8.006;2023-01-15T04:40:21;99286.00;;;7.30;100.00
24230;BME280;12362;50.004;8.006;2023-01-15T04:43:05;99297.81;;;7.34;100.00
24230;BME280;12362;50.004;8.006;2023-01-15T04:45:52;99293.41;;;7.36;100.00
24230;BME280;12362;50.004;8.006;2023-01-15T04:48:17;99304.47;;;7.23;100.00
24230;BME280;12362;50.004;8.006;2023-01-15T04:50:42;99304.31;;;7.26;100.00
24230;BME280;12362;50.004;8.006;2023-01-15T04:53:08;99294.66;;;7.29;100.00
24230;BME280;12362;50.004;8.006;2023-01-15T04:55:33;99292.50;;;7.22;100.00
24230;BME280;12362;50.004;8.006;2023-01-15T04:57:58;99293.59;;;7.01;100.00
24230;BME280;12362;50.004;8.006;2023-01-15T05:00:24;99286.53;;;7.05;100.00
24230;BME280;12362;50.004;8.006;2023-01-15T05:02:49;99281.16;;;7.09;100.00
24230;BME280;12362;50.004;8.006;2023-01-15T05:05:15;99286.09;;;6.97;100.00
24230;BME280;12362;50.004;8.006;2023-01-15T05:07:40;99287.00;;;6.96;100.00
24230;BME280;12362;50.004;8.006;2023-01-15T05:10:06;99295.09;;;6.90;100.00
24230;BME280;12362;50.004;8.006;2023-01-15T05:12:32;99303.13;;;6.84;100.00
24230;BME280;12362;50.004;8.006;2023-01-15T05:14:57;99302.81;;;6.90;100.00
24230;BME280;12362;50.004;8.006;2023-01-15T05:17:22;99301.63;;;6.80;100.00
24230;BME280;12362;50.004;8.006;2023-01-15T05:19:48;99309.44;;;6.78;100.00
24230;BME280;12362;50.004;8.006;2023-01-15T05:22:13;99329.38;;;6.75;100.00
24230;BME280;12362;50.004;8.006;2023-01-15T05:24:39;99331.28;;;6.71;100.00
24230;BME280;12362;50.004;8.006;2023-01-15T05:27:04;99334.25;;;6.64;100.00
24230;BME280;12362;50.004;8.006;2023-01-15T05:29:30;99334.34;;;6.62;100.00
24230;BME280;12362;50.004;8.006;2023-01-15T05:31:56;99338.28;;;6.69;100.00
24230;BME280;12362;50.004;8.006;2023-01-15T05:34:21;99331.75;;;6.62;100.00
24230;BME280;12362;50.004;8.006;2023-01-15T05:36:47;99348.06;;;6.63;100.00
24230;BME280;12362;50.004;8.006;2023-01-15T05:39:13;99355.34;;;6.55;100.00
24230;BME280;12362;50.004;8.006;2023-01-15T05:41:38;99349.81;;;6.62;100.00
24230;BME280;12362;50.004;8.006;2023-01-15T05:44:27;99346.00;;;6.52;100.00
24230;BME280;12362;50.004;8.006;2023-01-15T05:47:00;99344.50;;;6.48;100.00
24230;BME280;12362;50.004;8.006;2023-01-15T05:49:27;99347.00;;;6.50;100.00
24230;BME280;12362;50.004;8.006;2023-01-15T05:51:54;99354.50;;;6.54;100.00
24230;BME280;12362;50.004;8.006;2023-01-15T05:54:24;99368.66;;;6.46;100.00
24230;BME280;12362;50.004;8.006;2023-01-15T05:56:51;99359.13;;;6.48;100.00
24230;BME280;12362;50.004;8.006;2023-01-15T05:59:18;99357.22;;;6.51;100.00
24230;BME280;12362;50.004;8.006;2023-01-15T06:01:44;99356.16;;;6.55;100.00
24230;BME280;12362;50.004;8.006;2023-01-15T06:04:11;99349.59;;;6.67;100.00
24230;BME280;12362;50.004;8.006;2023-01-15T06:06:41;99347.16;;;6.64;100.00
24230;BME280;12362;50.004;8.006;2023-01-15T06:09:07;99348.72;;;6.66;100.00
24230;BME280;12362;50.004;8.006;2023-01-15T06:11:32;99349.63;;;6.65;100.00
24230;BME280;12362;50.004;8.006;2023-01-15T06:13:58;99352.06;;;6.68;100.00
24230;BME280;12362;50.004;8.006;2023-01-15T06:16:23;99354.56;;;6.70;100.00
24230;BME280;12362;50.004;8.006;2023-01-15T06:18:49;99361.38;;;6.71;100.00
24230;BME280;12362;50.004;8.006;2023-01-15T06:21:14;99368.44;;;6.67;100.00
24230;BME280;12362;50.004;8.006;2023-01-15T06:23:41;99378.72;;;6.69;100.00
24230;BME280;12362;50.004;8.006;2023-01-15T06:26:15;99373.47;;;6.70;100.00
24230;BME280;12362;50.004;8.006;2023-01-15T06:28:42;99371.19;;;6.64;100.00
24230;BME280;12362;50.004;8.006;2023-01-15T06:31:10;99380.06;;;6.59;100.00
24230;BME280;12362;50.004;8.006;2023-01-15T06:33:36;99385.81;;;6.47;100.00
24230;BME280;12362;50.004;8.006;2023-01-15T06:36:08;99389.50;;;6.41;100.00
24230;BME280;12362;50.004;8.006;2023-01-15T06:38:34;99387.16;;;6.37;100.00
24230;BME280;12362;50.004;8.006;2023-01-15T06:41:05;99389.97;;;6.32;100.00
24230;BME280;12362;50.004;8.006;2023-01-15T06:43:51;99380.69;;;6.28;100.00
24230;BME280;12362;50.004;8.006;2023-01-15T06:46:35;99392.41;;;6.35;100.00
24230;BME280;12362;50.004;8.006;2023-01-15T06:49:19;99389.38;;;6.44;100.00
24230;BME280;12362;50.004;8.006;2023-01-15T06:51:45;99400.94;;;6.36;100.00
24230;BME280;12362;50.004;8.006;2023-01-15T06:54:10;99389.06;;;6.33;100.00
24230;BME280;12362;50.004;8.006;2023-01-15T06:56:35;99385.78;;;6.30;100.00
24230;BME280;12362;50.004;8.006;2023-01-15T06:59:01;99398.69;;;6.30;100.00
24230;BME280;12362;50.004;8.006;2023-01-15T07:01:26;99404.88;;;6.26;100.00
24230;BME280;12362;50.004;8.006;2023-01-15T07:03:55;99413.03;;;6.17;100.00
24230;BME280;12362;50.004;8.006;2023-01-15T07:06:20;99411.47;;;6.15;100.00
24230;BME280;12362;50.004;8.006;2023-01-15T07:08:46;99410.25;;;6.22;100.00
24230;BME280;12362;50.004;8.006;2023-01-15T07:11:11;99413.13;;;6.16;100.00
24230;BME280;12362;50.004;8.006;2023-01-15T07:13:38;99436.31;;;6.16;100.00
24230;BME280;12362;50.004;8.006;2023-01-15T07:16:04;99431.34;;;6.11;100.00
24230;BME280;12362;50.004;8.006;2023-01-15T07:18:31;99437.41;;;6.10;100.00
24230;BME280;12362;50.004;8.006;2023-01-15T07:20:57;99419.38;;;6.10;100.00
24230;BME280;12362;50.004;8.006;2023-01-15T07:23:25;99426.28;;;6.10;100.00
24230;BME280;12362;50.004;8.006;2023-01-15T07:25:54;99434.09;;;6.08;100.00
24230;BME280;12362;50.004;8.006;2023-01-15T07:28:21;99443.50;;;6.09;100.00
24230;BME280;12362;50.004;8.006;2023-01-15T07:30:46;99446.47;;;6.00;100.00
24230;BME280;12362;50.004;8.006;2023-01-15T07:33:12;99453.31;;;6.01;100.00
24230;BME280;12362;50.004;8.006;2023-01-15T07:35:37;99460.25;;;5.99;100.00
24230;BME280;12362;50.004;8.006;2023-01-15T07:38:03;99459.44;;;5.99;100.00
24230;BME280;12362;50.004;8.006;2023-01-15T07:40:29;99452.59;;;5.98;100.00
24230;BME280;12362;50.004;8.006;2023-01-15T07:42:54;99460.91;;;6.04;100.00
24230;BME280;12362;50.004;8.006;2023-01-15T07:49:00;99475.53;;;6.04;100.00
24230;BME280;12362;50.004;8.006;2023-01-15T07:51:44;99478.16;;;6.02;100.00
24230;BME280;12362;50.004;8.006;2023-01-15T07:54:09;99475.38;;;6.07;100.00
24230;BME280;12362;50.004;8.006;2023-01-15T07:56:36;99478.72;;;6.09;100.00
24230;BME280;12362;50.004;8.006;2023-01-15T07:59:02;99480.13;;;5.97;100.00
24230;BME280;12362;50.004;8.006;2023-01-15T08:01:27;99480.25;;;5.94;100.00
24230;BME280;12362;50.004;8.006;2023-01-15T08:03:52;99485.13;;;6.00;100.00
24230;BME280;12362;50.004;8.006;2023-01-15T08:06:18;99490.28;;;6.00;100.00
24230;BME280;12362;50.004;8.006;2023-01-15T08:08:43;99488.59;;;5.99;100.00
24230;BME280;12362;50.004;8.006;2023-01-15T08:11:09;99490.56;;;5.94;100.00
24230;BME280;12362;50.004;8.006;2023-01-15T08:13:52;99484.41;;;5.97;100.00
24230;BME280;12362;50.004;8.006;2023-01-15T08:16:36;99494.84;;;5.94;100.00
24230;BME280;12362;50.004;8.006;2023-01-15T08:19:02;99493.06;;;5.96;100.00
24230;BME280;12362;50.004;8.006;2023-01-15T08:21:28;99496.31;;;5.99;100.00
24230;BME280;12362;50.004;8.006;2023-01-15T08:23:53;99495.38;;;6.02;100.00
24230;BME280;12362;50.004;8.006;2023-01-15T08:26:19;99502.19;;;6.03;100.00
24230;BME280;12362;50.004;8.006;2023-01-15T08:28:44;99504.47;;;6.09;100.00
24230;BME280;12362;50.004;8.006;2023-01-15T08:31:09;99510.66;;;6.05;100.00
24230;BME280;12362;50.004;8.006;2023-01-15T08:33:35;99521.63;;;6.10;100.00
24230;BME280;12362;50.004;8.006;2023-01-15T08:36:00;99521.63;;;6.10;100.00
24230;BME280;12362;50.004;8.006;2023-01-15T08:38:26;99522.94;;;6.00;100.00
24230;BME280;12362;50.004;8.006;2023-01-15T08:40:54;99532.25;;;6.02;100.00
24230;BME280;12362;50.004;8.006;2023-01-15T08:43:30;99519.94;;;6.09;100.00
24230;BME280;12362;50.004;8.006;2023-01-15T08:45:58;99518.34;;;6.06;100.00
24230;BME280;12362;50.004;8.006;2023-01-15T08:48:25;99518.28;;;6.08;100.00
24230;BME280;12362;50.004;8.006;2023-01-15T08:50:51;99531.66;;;6.16;100.00
24230;BME280;12362;50.004;8.006;2023-01-15T08:53:17;99522.41;;;6.12;100.00
24230;BME280;12362;50.004;8.006;2023-01-15T08:55:46;99519.81;;;6.12;100.00
24230;BME280;12362;50.004;8.006;2023-01-15T08:58:12;99526.44;;;6.17;100.00
24230;BME280;12362;50.004;8.006;2023-01-15T09:00:37;99535.53;;;6.24;100.00
24230;BME280;12362;50.004;8.006;2023-01-15T09:03:03;99539.09;;;6.22;100.00
24230;BME280;12362;50.004;8.006;2023-01-15T09:05:28;99544.25;;;6.22;100.00
24230;BME280;12362;50.004;8.006;2023-01-15T09:07:54;99543.22;;;6.26;100.00
24230;BME280;12362;50.004;8.006;2023-01-15T09:10:20;99543.34;;;6.23;100.00
24230;BME280;12362;50.004;8.006;2023-01-15T09:12:45;99549.28;;;6.25;100.00
24230;BME280;12362;50.004;8.006;2023-01-15T09:15:14;99552.06;;;6.20;100.00
24230;BME280;12362;50.004;8.006;2023-01-15T09:17:40;99550.03;;;6.08;100.00
24230;BME280;12362;50.004;8.006;2023-01-15T09:20:08;99551.09;;;6.23;100.00
24230;BME280;12362;50.004;8.006;2023-01-15T09:22:34;99553.78;;;6.20;100.00
24230;BME280;12362;50.004;8.006;2023-01-15T09:25:00;99560.38;;;6.27;100.00
24230;BME280;12362;50.004;8.006;2023-01-15T09:27:27;99572.34;;;6.28;100.00
24230;BME280;12362;50.004;8.006;2023-01-15T09:29:53;99574.78;;;6.30;100.00
24230;BME280;12362;50.004;8.006;2023-01-15T09:32:18;99580.09;;;6.28;100.00
24230;BME280;12362;50.004;8.006;2023-01-15T09:34:43;99572.06;;;6.33;100.00
24230;BME280;12362;50.004;8.006;2023-01-15T09:37:09;99579.38;;;6.42;100.00
24230;BME280;12362;50.004;8.006;2023-01-15T09:39:36;99575.75;;;6.46;100.00
24230;BME280;12362;50.004;8.006;2023-01-15T09:42:13;99575.13;;;6.41;100.00
24230;BME280;12362;50.004;8.006;2023-01-15T09:55:51;99589.06;;;6.37;100.00
24230;BME280;12362;50.004;8.006;2023-01-15T09:58:19;99593.38;;;6.55;100.00
24230;BME280;12362;50.004;8.006;2023-01-15T10:00:47;99595.06;;;6.56;100.00
24230;BME280;12362;50.004;8.006;2023-01-15T10:03:41;99597.16;;;6.67;100.00
24230;BME280;12362;50.004;8.006;2023-01-15T10:06:31;99594.84;;;6.61;100.00
24230;BME280;12362;50.004;8.006;2023-01-15T10:09:20;99591.66;;;6.56;100.00
24230;BME280;12362;50.004;8.006;2023-01-15T10:11:51;99589.78;;;6.59;100.00
24230;BME280;12362;50.004;8.006;2023-01-15T10:14:44;99587.97;;;6.61;100.00
24230;BME280;12362;50.004;8.006;2023-01-15T10:17:27;99587.75;;;6.47;100.00
24230;BME280;12362;50.004;8.006;2023-01-15T10:19:54;99595.63;;;6.44;100.00
24230;BME280;12362;50.004;8.006;2023-01-15T10:22:32;99604.13;;;6.46;100.00
24230;BME280;12362;50.004;8.006;2023-01-15T10:25:08;99601.97;;;6.37;100.00
24230;BME280;12362;50.004;8.006;2023-01-15T10:27:43;99581.25;;;6.39;100.00
24230;BME280;12362;50.004;8.006;2023-01-15T10:32:54;99582.09;;;6.39;100.00
24230;BME280;12362;50.004;8.006;2023-01-15T10:35:28;99587.81;;;6.28;100.00
24230;BME280;12362;50.004;8.006;2023-01-15T10:46:13;99590.97;;;6.14;100.00
24230;BME280;12362;50.004;8.006;2023-01-15T10:48:52;99596.47;;;6.27;100.00
24230;BME280;12362;50.004;8.006;2023-01-15T10:51:23;99596.94;;;6.34;100.00
24230;BME280;12362;50.004;8.006;2023-01-15T10:54:06;99603.69;;;6.37;100.00
24230;BME280;12362;50.004;8.006;2023-01-15T10:57:07;99592.41;;;6.39;100.00
24230;BME280;12362;50.004;8.006;2023-01-15T10:59:41;99592.34;;;6.41;100.00
24230;BME280;12362;50.004;8.006;2023-01-15T11:02:20;99590.56;;;6.61;100.00
24230;BME280;12362;50.004;8.006;2023-01-15T11:04:47;99587.53;;;6.70;100.00
24230;BME280;12362;50.004;8.006;2023-01-15T11:07:13;99588.00;;;6.97;100.00
24230;BME280;12362;50.004;8.006;2023-01-15T11:09:40;99607.03;;;6.94;100.00
24230;BME280;12362;50.004;8.006;2023-01-15T11:12:27;99594.38;;;7.07;100.00
24230;BME280;12362;50.004;8.006;2023-01-15T11:15:13;99597.31;;;6.99;100.00
24230;BME280;12362;50.004;8.006;2023-01-15T11:18:01;99593.03;;;7.00;100.00
24230;BME280;12362;50.004;8.006;2023-01-15T11:20:46;99587.44;;;7.42;100.00
24230;BME280;12362;50.004;8.006;2023-01-15T11:23:15;99592.41;;;7.30;100.00
24230;BME280;12362;50.004;8.006;2023-01-15T11:25:51;99597.03;;;7.57;100.00
24230;BME280;12362;50.004;8.006;2023-01-15T11:28:17;99598.09;;;7.36;100.00
24230;BME280;12362;50.004;8.006;2023-01-15T11:30:54;99595.63;;;7.69;100.00
24230;BME280;12362;50.004;8.006;2023-01-15T11:33:25;99574.66;;;8.07;100.00
24230;BME280;12362;50.004;8.006;2023-01-15T11:35:54;99559.72;;;8.29;100.00
24230;BME280;12362;50.004;8.006;2023-01-15T11:38:23;99559.81;;;8.43;100.00
24230;BME280;12362;50.004;8.006;2023-01-15T11:40:54;99566.63;;;8.76;100.00
24230;BME280;12362;50.004;8.006;2023-01-15T11:43:23;99540.47;;;8.65;100.00
24230;BME280;12362;50.004;8.006;2023-01-15T11:46:30;99559.53;;;8.16;100.00
24230;BME280;12362;50.004;8.006;2023-01-15T11:49:17;99545.75;;;8.16;100.00
24230;BME280;12362;50.004;8.006;2023-01-15T11:52:02;99541.38;;;8.49;100.00
24230;BME280;12362;50.004;8.006;2023-01-15T11:54:31;99545.13;;;8.59;100.00
24230;BME280;12362;50.004;8.006;2023-01-15T11:57:05;99527.69;;;8.93;100.00
24230;BME280;12362;50.004;8.006;2023-01-15T11:59:31;99535.34;;;8.95;100.00
24230;BME280;12362;50.004;8.006;2023-01-15T12:02:15;99538.31;;;8.73;100.00
24230;BME280;12362;50.004;8.006;2023-01-15T12:04:50;99533.38;;;9.29;100.00
24230;BME280;12362;50.004;8.006;2023-01-15T12:07:22;99541.44;;;9.38;100.00
24230;BME280;12362;50.004;8.006;2023-01-15T12:10:08;99526.03;;;8.77;100.00
24230;BME280;12362;50.004;8.006;2023-01-15T12:12:42;99521.41;;;8.97;100.00
24230;BME280;12362;50.004;8.006;2023-01-15T12:15:42;99507.91;;;8.77;100.00
24230;BME280;12362;50.004;8.006;2023-01-15T12:18:28;99517.16;;;9.25;100.00
24230;BME280;12362;50.004;8.006;2023-01-15T12:21:19;99503.38;;;9.82;100.00
24230;BME280;12362;50.004;8.006;2023-01-15T12:29:37;99487.63;;;9.57;100.00
24230;BME280;12362;50.004;8.006;2023-01-15T12:32:09;99498.47;;;9.78;100.00
24230;BME280;12362;50.004;8.006;2023-01-15T12:34:47;99489.91;;;10.59;100.00
24230;BME280;12362;50.004;8.006;2023-01-15T12:37:25;99499.50;;;10.31;100.00
24230;BME280;12362;50.004;8.006;2023-01-15T12:39:56;99512.94;;;10.37;100.00
24230;BME280;12362;50.004;8.006;2023-01-15T12:42:24;99503.28;;;9.84;100.00
24230;BME280;12362;50.004;8.006;2023-01-15T12:45:31;99501.06;;;10.33;100.00
24230;BME280;12362;50.004;8.006;2023-01-15T12:50:54;99514.19;;;9.61;100.00
24230;BME280;12362;50.004;8.006;2023-01-15T13:01:25;99507.59;;;9.55;100.00
24230;BME280;12362;50.004;8.006;2023-01-15T13:04:23;99517.59;;;9.47;100.00
24230;BME280;12362;50.004;8.006;2023-01-15T13:07:41;99510.66;;;9.18;100.00
24230;BME280;12362;50.004;8.006;2023-01-15T13:09:54;99515.38;;;9.41;100.00
24230;BME280;12362;50.004;8.006;2023-01-15T13:12:20;99518.72;;;8.99;100.00
24230;BME280;12362;50.004;8.006;2023-01-15T13:15:17;99519.72;;;9.11;100.00
24230;BME280;12362;50.004;8.006;2023-01-15T13:18:12;99514.44;;;9.13;100.00
24230;BME280;12362;50.004;8.006;2023-01-15T13:20:50;99516.41;;;9.23;100.00
24230;BME280;12362;50.004;8.006;2023-01-15T13:28:42;99502.19;;;9.30;100.00
24230;BME280;12362;50.004;8.006;2023-01-15T13:34:12;99501.22;;;9.47;100.00
24230;BME280;12362;50.004;8.006;2023-01-15T13:36:43;99512.25;;;9.78;100.00
24230;BME280;12362;50.004;8.006;2023-01-15T13:39:20;99510.34;;;9.68;100.00
24230;BME280;12362;50.004;8.006;2023-01-15T13:41:50;99513.59;;;9.42;100.00
24230;BME280;12362;50.004;8.006;2023-01-15T13:48:01;99520.59;;;9.26;100.00
24230;BME280;12362;50.004;8.006;2023-01-15T13:50:30;99507.84;;;9.37;100.00
24230;BME280;12362;50.004;8.006;2023-01-15T13:53:02;99504.97;;;9.85;100.00
24230;BME280;12362;50.004;8.006;2023-01-15T13:55:33;99511.06;;;9.84;100.00
24230;BME280;12362;50.004;8.006;2023-01-15T13:57:58;99504.97;;;10.40;100.00
24230;BME280;12362;50.004;8.006;2023-01-15T14:00:30;99502.13;;;10.03;100.00
24230;BME280;12362;50.004;8.006;2023-01-15T14:03:02;99506.56;;;10.15;100.00
24230;BME280;12362;50.004;8.006;2023-01-15T14:05:33;99518.31;;;9.79;100.00
24230;BME280;12362;50.004;8.006;2023-01-15T14:08:01;99499.78;;;9.85;100.00
24230;BME280;12362;50.004;8.006;2023-01-15T14:13:35;99508.03;;;9.34;100.00
24230;BME280;12362;50.004;8.006;2023-01-15T14:16:34;99509.06;;;9.45;100.00
24230;BME280;12362;50.004;8.006;2023-01-15T14:19:29;99520.41;;;9.72;100.00
24230;BME280;12362;50.004;8.006;2023-01-15T14:27:56;99526.47;;;9.14;100.00
24230;BME280;12362;50.004;8.006;2023-01-15T14:35:51;99525.66;;;8.83;100.00
24230;BME280;12362;50.004;8.006;2023-01-15T14:38:19;99531.97;;;8.79;100.00
24230;BME280;12362;50.004;8.006;2023-01-15T14:41:01;99534.09;;;9.02;100.00
24230;BME280;12362;50.004;8.006;2023-01-15T14:43:34;99535.56;;;8.76;100.00
24230;BME280;12362;50.004;8.006;2023-01-15T14:48:37;99539.03;;;8.60;100.00
24230;BME280;12362;50.004;8.006;2023-01-15T14:51:44;99556.63;;;8.38;100.00
24230;BME280;12362;50.004;8.006;2023-01-15T14:54:04;99550.00;;;8.65;100.00
24230;BME280;12362;50.004;8.006;2023-01-15T14:56:33;99553.41;;;8.96;100.00